sensor_id;sensor_type;location;lat;lon;timestamp;temperature;humidity
38910;DHT22;24676;51.360;12.354;2023-11-19T00:01:00;5.10;99.90
38910;DHT22;24676;51.360;12.354;2023-11-19T00:03:45;5.10;99.90
38910;DHT22;24676;51.360;12.354;2023-11-19T00:06:29;5.10;99.90
38910;DHT22;24676;51.360;12.354;2023-11-19T00:09:13;5.10;99.90
38910;DHT22;24676;51.360;12.354;2023-11-19T00:11:57;5.10;99.90
38910;DHT22;24676;51.360;12.354;2023-11-19T00:14:41;5.10;99.90
38910;DHT22;24676;51.360;12.354;2023-11-19T00:17:25;5.10;99.90
38910;DHT22;24676;51.360;12.354;2023-11-19T00:20:11;5.10;99.90
38910;DHT22;24676;51.360;12.354;2023-11-19T00:22:55;5.10;99.90
38910;DHT22;24676;51.360;12.354;2023-11-19T00:25:40;5.10;99.90
38910;DHT22;24676;51.360;12.354;2023-11-19T00:28:24;5.10;99.90
38910;DHT22;24676;51.360;12.354;2023-11-19T00:31:08;5.10;99.90
38910;DHT22;24676;51.360;12.354;2023-11-19T00:33:52;5.10;99.90
38910;DHT22;24676;51.360;12.354;2023-11-19T00:36:36;5.10;99.90
38910;DHT22;24676;51.360;12.354;2023-11-19T00:39:20;5.10;99.90
38910;DHT22;24676;51.360;12.354;2023-11-19T00:42:05;5.00;99.90
38910;DHT22;24676;51.360;12.354;2023-11-19T00:44:49;5.00;99.90
38910;DHT22;24676;51.360;12.354;2023-11-19T00:47:34;5.00;99.90
38910;DHT22;24676;51.360;12.354;2023-11-19T00:50:19;5.00;99.90
38910;DHT22;24676;51.360;12.354;2023-11-19T00:53:03;5.00;99.90
38910;DHT22;24676;51.360;12.354;2023-11-19T00:55:47;5.00;99.90
38910;DHT22;24676;51.360;12.354;2023-11-19T00:58:32;5.00;99.90
38910;DHT22;24676;51.360;12.354;2023-11-19T01:01:16;5.00;99.90
38910;DHT22;24676;51.360;12.354;2023-11-19T01:04:00;5.00;99.90
38910;DHT22;24676;51.360;12.354;2023-11-19T01:06:44;5.00;99.90
38910;DHT22;24676;51.360;12.354;2023-11-19T01:09:29;5.00;99.90
38910;DHT22;24676;51.360;12.354;2023-11-19T01:12:13;5.00;99.90
38910;DHT22;24676;51.360;12.354;2023-11-19T01:14:57;5.00;99.90
38910;DHT22;24676;51.360;12.354;2023-11-19T01:17:42;5.00;99.90
38910;DHT22;24676;51.360;12.354;2023-11-19T01:20:27;5.00;99.90
38910;DHT22;24676;51.360;12.354;2023-11-19T01:23:11;5.00;99.90
38910;DHT22;24676;51.360;12.354;2023-11-19T01:25:55;5.00;99.90
38910;DHT22;24676;51.360;12.354;2023-11-19T01:28:39;5.00;99.90
38910;DHT22;24676;51.360;12.354;2023-11-19T01:31:28;5.00;99.90
38910;DHT22;24676;51.360;12.354;2023-11-19T01:34:12;5.00;99.90
38910;DHT22;24676;51.360;12.354;2023-11-19T01:36:57;5.00;99.90
38910;DHT22;24676;51.360;12.354;2023-11-19T01:39:44;5.00;99.90
38910;DHT22;24676;51.360;12.354;2023-11-19T01:42:29;5.00;99.90
38910;DHT22;24676;51.360;12.354;2023-11-19T01:45:27;5.00;99.90
38910;DHT22;24676;51.360;12.354;2023-11-19T01:48:11;5.10;99.90
38910;DHT22;24676;51.360;12.354;2023-11-19T01:50:57;5.00;99.90
38910;DHT22;24676;51.360;12.354;2023-11-19T01:53:41;5.10;99.90
38910;DHT22;24676;51.360;12.354;2023-11-19T01:56:27;5.00;99.90
38910;DHT22;24676;51.360;12.354;2023-11-19T01:59:11;5.10;99.90
38910;DHT22;24676;51.360;12.354;2023-11-19T02:01:57;5.00;99.90
38910;DHT22;24676;51.360;12.354;2023-11-19T02:04:41;5.10;99.90
38910;DHT22;24676;51.360;12.354;2023-11-19T02:07:26;5.10;99.90
38910;DHT22;24676;51.360;12.354;2023-11-19T02:10:10;5.10;99.90
38910;DHT22;24676;51.360;12.354;2023-11-19T02:12:58;5.00;99.90
38910;DHT22;24676;51.360;12.354;2023-11-19T02:15:43;5.00;99.90
38910;DHT22;24676;51.360;12.354;2023-11-19T02:18:27;5.00;99.90
38910;DHT22;24676;51.360;12.354;2023-11-19T02:21:12;5.00;99.90
38910;DHT22;24676;51.360;12.354;2023-11-19T02:23:58;5.00;99.90
38910;DHT22;24676;51.360;12.354;2023-11-19T02:26:45;5.00;99.90
38910;DHT22;24676;51.360;12.354;2023-11-19T02:29:31;5.10;99.90
38910;DHT22;24676;51.360;12.354;2023-11-19T02:32:16;5.10;99.90
38910;DHT22;24676;51.360;12.354;2023-11-19T02:35:00;5.10;99.90
38910;DHT22;24676;51.360;12.354;2023-11-19T02:37:44;5.10;99.90
38910;DHT22;24676;51.360;12.354;2023-11-19T02:40:29;5.10;99.90
38910;DHT22;24676;51.360;12.354;2023-11-19T02:43:13;5.00;99.90
38910;DHT22;24676;51.360;12.354;2023-11-19T02:45:57;5.10;99.90
38910;DHT22;24676;51.360;12.354;2023-11-19T02:48:41;5.10;99.90
38910;DHT22;24676;51.360;12.354;2023-11-19T02:51:27;5.10;99.90
38910;DHT22;24676;51.360;12.354;2023-11-19T02:54:11;5.10;99.90
38910;DHT22;24676;51.360;12.354;2023-11-19T02:56:56;5.10;99.90
38910;DHT22;24676;51.360;12.354;2023-11-19T02:59:43;5.10;99.90
38910;DHT22;24676;51.360;12.354;2023-11-19T03:02:30;5.10;99.90
38910;DHT22;24676;51.360;12.354;2023-11-19T03:05:18;5.20;99.90
38910;DHT22;24676;51.360;12.354;2023-11-19T03:08:03;5.20;99.90
38910;DHT22;24676;51.360;12.354;2023-11-19T03:10:47;5.20;99.90
38910;DHT22;24676;51.360;12.354;2023-11-19T03:13:32;5.20;99.90
38910;DHT22;24676;51.360;12.354;2023-11-19T03:16:16;5.20;99.90
38910;DHT22;24676;51.360;12.354;2023-11-19T03:19:00;5.30;99.90
38910;DHT22;24676;51.360;12.354;2023-11-19T03:21:45;5.30;99.90
38910;DHT22;24676;51.360;12.354;2023-11-19T03:24:29;5.30;99.90
38910;DHT22;24676;51.360;12.354;2023-11-19T03:27:13;5.30;99.90
38910;DHT22;24676;51.360;12.354;2023-11-19T03:29:57;5.40;99.90
38910;DHT22;24676;51.360;12.354;2023-11-19T03:32:41;5.40;99.90
38910;DHT22;24676;51.360;12.354;2023-11-19T03:35:25;5.40;99.90
38910;DHT22;24676;51.360;12.354;2023-11-19T03:38:10;5.50;99.90
38910;DHT22;24676;51.360;12.354;2023-11-19T03:40:54;5.50;99.90
38910;DHT22;24676;51.360;12.354;2023-11-19T03:43:38;5.60;99.90
38910;DHT22;24676;51.360;12.354;2023-11-19T03:46:23;5.70;99.90
38910;DHT22;24676;51.360;12.354;2023-11-19T03:49:07;5.80;99.90
38910;DHT22;24676;51.360;12.354;2023-11-19T03:51:51;5.80;99.90
38910;DHT22;24676;51.360;12.354;2023-11-19T03:54:35;5.80;99.90
38910;DHT22;24676;51.360;12.354;2023-11-19T03:57:20;5.80;99.90
38910;DHT22;24676;51.360;12.354;2023-11-19T04:00:05;5.90;99.90
38910;DHT22;24676;51.360;12.354;2023-11-19T04:02:54;5.90;99.90
38910;DHT22;24676;51.360;12.354;2023-11-19T04:05:38;5.90;99.90
38910;DHT22;24676;51.360;12.354;2023-11-19T04:08:22;5.90;99.90
38910;DHT22;24676;51.360;12.354;2023-11-19T04:11:07;6.00;99.90
38910;DHT22;24676;51.360;12.354;2023-11-19T04:13:52;6.00;99.90
38910;DHT22;24676;51.360;12.354;2023-11-19T04:16:37;6.00;99.90
38910;DHT22;24676;51.360;12.354;2023-11-19T04:19:21;6.10;99.90
38910;DHT22;24676;51.360;12.354;2023-11-19T04:22:05;6.10;99.90
38910;DHT22;24676;51.360;12.354;2023-11-19T04:24:50;6.10;99.90
38910;DHT22;24676;51.360;12.354;2023-11-19T04:27:34;6.10;99.90
38910;DHT22;24676;51.360;12.354;2023-11-19T04:30:18;6.20;99.90
38910;DHT22;24676;51.360;12.354;2023-11-19T04:33:02;6.20;99.90
38910;DHT22;24676;51.360;12.354;2023-11-19T04:35:46;6.20;99.90
38910;DHT22;24676;51.360;12.354;2023-11-19T04:38:31;6.20;99.90
38910;DHT22;24676;51.360;12.354;2023-11-19T04:41:15;6.20;99.90
38910;DHT22;24676;51.360;12.354;2023-11-19T04:43:59;6.30;99.90
38910;DHT22;24676;51.360;12.354;2023-11-19T04:46:43;6.30;99.90
38910;DHT22;24676;51.360;12.354;2023-11-19T04:49:28;6.30;99.90
38910;DHT22;24676;51.360;12.354;2023-11-19T04:52:12;6.30;99.90
38910;DHT22;24676;51.360;12.354;2023-11-19T04:54:56;6.40;99.90
38910;DHT22;24676;51.360;12.354;2023-11-19T04:57:41;6.40;99.90
38910;DHT22;24676;51.360;12.354;2023-11-19T05:00:25;6.40;99.90
38910;DHT22;24676;51.360;12.354;2023-11-19T05:03:09;6.40;99.90
38910;DHT22;24676;51.360;12.354;2023-11-19T05:05:53;6.40;99.90
38910;DHT22;24676;51.360;12.354;2023-11-19T05:08:37;6.40;99.90
38910;DHT22;24676;51.360;12.354;2023-11-19T05:11:22;6.50;99.90
38910;DHT22;24676;51.360;12.354;2023-11-19T05:14:06;6.50;99.90
38910;DHT22;24676;51.360;12.354;2023-11-19T05:16:50;6.50;99.90
38910;DHT22;24676;51.360;12.354;2023-11-19T05:19:34;6.50;99.90
38910;DHT22;24676;51.360;12.354;2023-11-19T05:22:18;6.50;99.90
38910;DHT22;24676;51.360;12.354;2023-11-19T05:25:04;6.50;99.90
38910;DHT22;24676;51.360;12.354;2023-11-19T05:27:49;6.50;99.90
38910;DHT22;24676;51.360;12.354;2023-11-19T05:30:37;6.60;99.90
38910;DHT22;24676;51.360;12.354;2023-11-19T05:33:21;6.60;99.90
38910;DHT22;24676;51.360;12.354;2023-11-19T05:36:05;6.60;99.90
38910;DHT22;24676;51.360;12.354;2023-11-19T05:38:50;6.70;99.90
38910;DHT22;24676;51.360;12.354;2023-11-19T05:41:34;6.70;99.90
38910;DHT22;24676;51.360;12.354;2023-11-19T05:44:18;6.70;99.90
38910;DHT22;24676;51.360;12.354;2023-11-19T05:47:03;6.70;99.90
38910;DHT22;24676;51.360;12.354;2023-11-19T05:49:48;6.80;99.90
38910;DHT22;24676;51.360;12.354;2023-11-19T05:52:32;6.80;99.90
38910;DHT22;24676;51.360;12.354;2023-11-19T05:55:17;6.80;99.90
38910;DHT22;24676;51.360;12.354;2023-11-19T05:58:01;6.80;99.90
38910;DHT22;24676;51.360;12.354;2023-11-19T06:00:46;6.80;99.90
38910;DHT22;24676;51.360;12.354;2023-11-19T06:03:31;6.80;99.90
38910;DHT22;24676;51.360;12.354;2023-11-19T06:06:15;6.80;99.90
38910;DHT22;24676;51.360;12.354;2023-11-19T06:08:59;6.80;99.90
38910;DHT22;24676;51.360;12.354;2023-11-19T06:11:43;6.80;99.90
38910;DHT22;24676;51.360;12.354;2023-11-19T06:14:28;6.90;99.90
38910;DHT22;24676;51.360;12.354;2023-11-19T06:17:13;7.00;99.90
38910;DHT22;24676;51.360;12.354;2023-11-19T06:19:57;7.00;99.90
38910;DHT22;24676;51.360;12.354;2023-11-19T06:22:42;7.00;99.90
38910;DHT22;24676;51.360;12.354;2023-11-19T06:25:27;7.00;99.90
38910;DHT22;24676;51.360;12.354;2023-11-19T06:28:11;7.10;99.90
38910;DHT22;24676;51.360;12.354;2023-11-19T06:30:57;7.10;99.90
38910;DHT22;24676;51.360;12.354;2023-11-19T06:33:42;7.10;99.90
38910;DHT22;24676;51.360;12.354;2023-11-19T06:36:26;7.20;99.90
38910;DHT22;24676;51.360;12.354;2023-11-19T06:39:11;7.20;99.90
38910;DHT22;24676;51.360;12.354;2023-11-19T06:41:56;7.20;99.90
38910;DHT22;24676;51.360;12.354;2023-11-19T06:44:40;7.10;99.90
38910;DHT22;24676;51.360;12.354;2023-11-19T06:47:25;7.20;99.90
38910;DHT22;24676;51.360;12.354;2023-11-19T06:50:10;7.20;99.90
38910;DHT22;24676;51.360;12.354;2023-11-19T06:52:56;7.20;99.90
38910;DHT22;24676;51.360;12.354;2023-11-19T06:55:40;7.10;99.90
38910;DHT22;24676;51.360;12.354;2023-11-19T06:58:24;7.10;99.90
38910;DHT22;24676;51.360;12.354;2023-11-19T07:01:09;7.10;99.90
38910;DHT22;24676;51.360;12.354;2023-11-19T07:03:53;7.10;99.90
38910;DHT22;24676;51.360;12.354;2023-11-19T07:06:37;7.00;99.90
38910;DHT22;24676;51.360;12.354;2023-11-19T07:09:21;7.10;99.90
38910;DHT22;24676;51.360;12.354;2023-11-19T07:12:07;7.10;99.90
38910;DHT22;24676;51.360;12.354;2023-11-19T07:14:51;7.20;99.90
38910;DHT22;24676;51.360;12.354;2023-11-19T07:17:36;7.30;99.90
38910;DHT22;24676;51.360;12.354;2023-11-19T07:20:20;7.30;99.90
38910;DHT22;24676;51.360;12.354;2023-11-19T07:23:04;7.40;99.90
38910;DHT22;24676;51.360;12.354;2023-11-19T07:25:48;7.40;99.90
38910;DHT22;24676;51.360;12.354;2023-11-19T07:28:34;7.40;99.90
38910;DHT22;24676;51.360;12.354;2023-11-19T07:31:18;7.40;99.90
38910;DHT22;24676;51.360;12.354;2023-11-19T07:34:03;7.50;99.90
38910;DHT22;24676;51.360;12.354;2023-11-19T07:36:47;7.70;99.90
38910;DHT22;24676;51.360;12.354;2023-11-19T07:39:32;7.80;99.90
38910;DHT22;24676;51.360;12.354;2023-11-19T07:42:16;7.90;99.90
38910;DHT22;24676;51.360;12.354;2023-11-19T07:45:00;8.00;99.90
38910;DHT22;24676;51.360;12.354;2023-11-19T07:47:45;8.00;99.90
38910;DHT22;24676;51.360;12.354;2023-11-19T07:50:29;8.00;99.90
38910;DHT22;24676;51.360;12.354;2023-11-19T07:53:19;8.10;99.90
38910;DHT22;24676;51.360;12.354;2023-11-19T07:56:03;8.10;99.90
38910;DHT22;24676;51.360;12.354;2023-11-19T07:58:47;8.10;99.90
38910;DHT22;24676;51.360;12.354;2023-11-19T08:01:32;8.20;99.90
38910;DHT22;24676;51.360;12.354;2023-11-19T08:04:16;8.20;99.90
38910;DHT22;24676;51.360;12.354;2023-11-19T08:07:01;8.30;99.90
38910;DHT22;24676;51.360;12.354;2023-11-19T08:09:45;8.30;99.90
38910;DHT22;24676;51.360;12.354;2023-11-19T08:12:30;8.30;99.90
38910;DHT22;24676;51.360;12.354;2023-11-19T08:15:14;8.30;99.90
38910;DHT22;24676;51.360;12.354;2023-11-19T08:17:58;8.40;99.90
38910;DHT22;24676;51.360;12.354;2023-11-19T08:20:42;8.50;99.90
38910;DHT22;24676;51.360;12.354;2023-11-19T08:23:28;8.60;99.90
38910;DHT22;24676;51.360;12.354;2023-11-19T08:26:14;8.70;99.90
38910;DHT22;24676;51.360;12.354;2023-11-19T08:31:32;8.80;99.90
38910;DHT22;24676;51.360;12.354;2023-11-19T08:34:16;8.90;99.90
38910;DHT22;24676;51.360;12.354;2023-11-19T08:37:00;9.00;99.90
38910;DHT22;24676;51.360;12.354;2023-11-19T08:39:45;9.00;99.90
38910;DHT22;24676;51.360;12.354;2023-11-19T08:42:30;9.10;99.90
38910;DHT22;24676;51.360;12.354;2023-11-19T08:45:14;9.20;99.90
38910;DHT22;24676;51.360;12.354;2023-11-19T08:47:58;9.30;99.90
38910;DHT22;24676;51.360;12.354;2023-11-19T08:50:43;9.60;99.90
38910;DHT22;24676;51.360;12.354;2023-11-19T08:53:27;9.70;99.90
38910;DHT22;24676;51.360;12.354;2023-11-19T08:56:11;9.80;99.90
38910;DHT22;24676;51.360;12.354;2023-11-19T08:58:56;9.90;99.90
38910;DHT22;24676;51.360;12.354;2023-11-19T09:01:40;9.90;99.90
38910;DHT22;24676;51.360;12.354;2023-11-19T09:04:24;10.00;99.90
38910;DHT22;24676;51.360;12.354;2023-11-19T09:07:09;10.20;99.90
38910;DHT22;24676;51.360;12.354;2023-11-19T09:09:56;10.20;99.90
38910;DHT22;24676;51.360;12.354;2023-11-19T09:12:40;10.30;99.90
38910;DHT22;24676;51.360;12.354;2023-11-19T09:15:24;10.50;99.90
38910;DHT22;24676;51.360;12.354;2023-11-19T09:18:09;10.70;99.90
38910;DHT22;24676;51.360;12.354;2023-11-19T09:20:53;10.90;99.90
38910;DHT22;24676;51.360;12.354;2023-11-19T09:23:38;10.90;99.90
38910;DHT22;24676;51.360;12.354;2023-11-19T09:26:23;10.90;99.90
38910;DHT22;24676;51.360;12.354;2023-11-19T09:29:07;10.90;99.90
38910;DHT22;24676;51.360;12.354;2023-11-19T09:31:51;10.90;99.90
38910;DHT22;24676;51.360;12.354;2023-11-19T09:34:35;10.90;99.90
38910;DHT22;24676;51.360;12.354;2023-11-19T09:37:19;10.90;99.90
38910;DHT22;24676;51.360;12.354;2023-11-19T09:40:04;10.80;99.90
38910;DHT22;24676;51.360;12.354;2023-11-19T09:42:48;10.70;99.90
38910;DHT22;24676;51.360;12.354;2023-11-19T09:45:36;10.70;99.90
38910;DHT22;24676;51.360;12.354;2023-11-19T09:48:28;10.70;99.90
38910;DHT22;24676;51.360;12.354;2023-11-19T09:51:12;10.60;99.90
38910;DHT22;24676;51.360;12.354;2023-11-19T09:53:56;10.60;99.90
38910;DHT22;24676;51.360;12.354;2023-11-19T09:56:40;10.60;99.90
38910;DHT22;24676;51.360;12.354;2023-11-19T09:59:25;10.60;99.90
38910;DHT22;24676;51.360;12.354;2023-11-19T10:02:09;10.60;99.90
38910;DHT22;24676;51.360;12.354;2023-11-19T10:04:54;10.60;99.90
38910;DHT22;24676;51.360;12.354;2023-11-19T10:07:38;10.50;99.90
38910;DHT22;24676;51.360;12.354;2023-11-19T10:10:22;10.50;99.90
38910;DHT22;24676;51.360;12.354;2023-11-19T10:13:06;10.50;99.90
38910;DHT22;24676;51.360;12.354;2023-11-19T10:15:52;10.50;99.90
38910;DHT22;24676;51.360;12.354;2023-11-19T10:18:36;10.50;99.90
38910;DHT22;24676;51.360;12.354;2023-11-19T10:21:21;10.40;99.90
38910;DHT22;24676;51.360;12.354;2023-11-19T10:24:06;10.50;99.90
38910;DHT22;24676;51.360;12.354;2023-11-19T10:26:50;10.50;99.90
38910;DHT22;24676;51.360;12.354;2023-11-19T10:29:37;10.50;99.90
38910;DHT22;24676;51.360;12.354;2023-11-19T10:32:21;10.60;99.90
38910;DHT22;24676;51.360;12.354;2023-11-19T10:35:06;10.70;99.90
38910;DHT22;24676;51.360;12.354;2023-11-19T10:37:50;10.80;99.90
38910;DHT22;24676;51.360;12.354;2023-11-19T10:40:38;10.90;99.90
38910;DHT22;24676;51.360;12.354;2023-11-19T10:43:23;11.00;99.90
38910;DHT22;24676;51.360;12.354;2023-11-19T10:46:11;11.10;99.90
38910;DHT22;24676;51.360;12.354;2023-11-19T10:48:55;11.20;99.90
38910;DHT22;24676;51.360;12.354;2023-11-19T10:51:42;11.40;99.90
38910;DHT22;24676;51.360;12.354;2023-11-19T10:54:28;11.60;99.90
38910;DHT22;24676;51.360;12.354;2023-11-19T10:57:15;12.00;99.90
38910;DHT22;24676;51.360;12.354;2023-11-19T11:00:03;12.30;99.90
38910;DHT22;24676;51.360;12.354;2023-11-19T11:02:55;12.60;99.90
38910;DHT22;24676;51.360;12.354;2023-11-19T11:05:40;12.70;99.90
38910;DHT22;24676;51.360;12.354;2023-11-19T11:08:24;13.00;99.90
38910;DHT22;24676;51.360;12.354;2023-11-19T11:11:08;13.20;99.90
38910;DHT22;24676;51.360;12.354;2023-11-19T11:13:57;13.30;99.90
38910;DHT22;24676;51.360;12.354;2023-11-19T11:16:43;13.40;99.90
38910;DHT22;24676;51.360;12.354;2023-11-19T11:19:28;13.80;99.90
38910;DHT22;24676;51.360;12.354;2023-11-19T11:22:12;14.10;99.90
38910;DHT22;24676;51.360;12.354;2023-11-19T11:27:48;14.30;99.90
38910;DHT22;24676;51.360;12.354;2023-11-19T11:33:26;14.70;99.90
38910;DHT22;24676;51.360;12.354;2023-11-19T11:38:58;15.10;99.90
38910;DHT22;24676;51.360;12.354;2023-11-19T11:41:44;15.00;99.90
38910;DHT22;24676;51.360;12.354;2023-11-19T11:44:57;14.90;99.90
38910;DHT22;24676;51.360;12.354;2023-11-19T11:50:26;14.60;99.90
38910;DHT22;24676;51.360;12.354;2023-11-19T11:53:15;14.30;99.90
38910;DHT22;24676;51.360;12.354;2023-11-19T11:55:59;13.90;99.90
38910;DHT22;24676;51.360;12.354;2023-11-19T11:58:45;13.50;99.90
38910;DHT22;24676;51.360;12.354;2023-11-19T12:01:30;13.10;99.90
38910;DHT22;24676;51.360;12.354;2023-11-19T12:04:14;12.90;99.90
38910;DHT22;24676;51.360;12.354;2023-11-19T12:07:06;12.60;99.90
38910;DHT22;24676;51.360;12.354;2023-11-19T12:09:51;12.50;99.90
38910;DHT22;24676;51.360;12.354;2023-11-19T12:12:36;12.50;99.90
38910;DHT22;24676;51.360;12.354;2023-11-19T12:15:24;12.60;99.90
38910;DHT22;24676;51.360;12.354;2023-11-19T12:18:10;12.80;99.90
38910;DHT22;24676;51.360;12.354;2023-11-19T12:20:55;13.00;99.90
38910;DHT22;24676;51.360;12.354;2023-11-19T12:23:45;13.20;99.90
38910;DHT22;24676;51.360;12.354;2023-11-19T12:26:32;13.30;99.90
38910;DHT22;24676;51.360;12.354;2023-11-19T12:29:16;13.30;99.90
38910;DHT22;24676;51.360;12.354;2023-11-19T12:32:00;13.60;99.90
38910;DHT22;24676;51.360;12.354;2023-11-19T12:34:46;13.80;99.90
38910;DHT22;24676;51.360;12.354;2023-11-19T12:37:30;13.90;99.90
38910;DHT22;24676;51.360;12.354;2023-11-19T12:40:22;14.00;99.90
38910;DHT22;24676;51.360;12.354;2023-11-19T12:43:06;14.10;99.90
38910;DHT22;24676;51.360;12.354;2023-11-19T12:45:50;14.00;99.90
38910;DHT22;24676;51.360;12.354;2023-11-19T12:48:34;13.90;99.90
38910;DHT22;24676;51.360;12.354;2023-11-19T12:51:18;13.80;99.90
38910;DHT22;24676;51.360;12.354;2023-11-19T12:54:03;13.80;99.90
38910;DHT22;24676;51.360;12.354;2023-11-19T12:56:52;13.80;99.90
38910;DHT22;24676;51.360;12.354;2023-11-19T12:59:36;13.80;99.90
38910;DHT22;24676;51.360;12.354;2023-11-19T13:02:21;13.80;99.90
38910;DHT22;24676;51.360;12.354;2023-11-19T13:05:23;13.80;99.90
38910;DHT22;24676;51.360;12.354;2023-11-19T13:08:09;13.60;99.90
38910;DHT22;24676;51.360;12.354;2023-11-19T13:10:53;13.40;99.90
38910;DHT22;24676;51.360;12.354;2023-11-19T13:16:41;13.30;99.90
38910;DHT22;24676;51.360;12.354;2023-11-19T13:19:26;13.30;99.90
38910;DHT22;24676;51.360;12.354;2023-11-19T13:22:10;13.40;99.90
38910;DHT22;24676;51.360;12.354;2023-11-19T13:24:54;13.50;99.90
38910;DHT22;24676;51.360;12.354;2023-11-19T13:27:38;13.60;99.90
38910;DHT22;24676;51.360;12.354;2023-11-19T13:30:23;13.60;99.90
38910;DHT22;24676;51.360;12.354;2023-11-19T13:33:07;13.50;99.90
38910;DHT22;24676;51.360;12.354;2023-11-19T13:35:51;13.30;99.90
38910;DHT22;24676;51.360;12.354;2023-11-19T13:38:35;13.20;99.90
38910;DHT22;24676;51.360;12.354;2023-11-19T13:41:20;13.10;99.90
38910;DHT22;24676;51.360;12.354;2023-11-19T13:44:04;12.90;99.90
38910;DHT22;24676;51.360;12.354;2023-11-19T13:46:48;12.80;99.90
38910;DHT22;24676;51.360;12.354;2023-11-19T13:49:33;12.70;99.90
38910;DHT22;24676;51.360;12.354;2023-11-19T13:52:18;12.60;99.90
38910;DHT22;24676;51.360;12.354;2023-11-19T13:55:02;12.50;99.90
38910;DHT22;24676;51.360;12.354;2023-11-19T13:57:47;12.40;99.90
38910;DHT22;24676;51.360;12.354;2023-11-19T14:00:32;12.30;99.90
38910;DHT22;24676;51.360;12.354;2023-11-19T14:03:16;12.20;99.90
38910;DHT22;24676;51.360;12.354;2023-11-19T14:06:01;12.10;99.90
38910;DHT22;24676;51.360;12.354;2023-11-19T14:08:47;12.00;99.90
38910;DHT22;24676;51.360;12.354;2023-11-19T14:11:31;12.10;99.90
38910;DHT22;24676;51.360;12.354;2023-11-19T14:14:16;12.10;99.90
38910;DHT22;24676;51.360;12.354;2023-11-19T14:17:01;12.10;99.90
38910;DHT22;24676;51.360;12.354;2023-11-19T14:19:47;12.20;99.90
38910;DHT22;24676;51.360;12.354;2023-11-19T14:22:31;12.20;99.90
38910;DHT22;24676;51.360;12.354;2023-11-19T14:25:15;12.20;99.90
38910;DHT22;24676;51.360;12.354;2023-11-19T14:28:01;12.30;99.90
38910;DHT22;24676;51.360;12.354;2023-11-19T14:30:45;12.30;99.90
38910;DHT22;24676;51.360;12.354;2023-11-19T14:33:30;12.20;99.90
38910;DHT22;24676;51.360;12.354;2023-11-19T14:36:15;12.20;99.90
38910;DHT22;24676;51.360;12.354;2023-11-19T14:38:59;12.10;99.90
38910;DHT22;24676;51.360;12.354;2023-11-19T14:41:43;12.10;99.90
38910;DHT22;24676;51.360;12.354;2023-11-19T14:44:28;12.10;99.90
38910;DHT22;24676;51.360;12.354;2023-11-19T14:47:13;12.10;99.90
38910;DHT22;24676;51.360;12.354;2023-11-19T14:49:58;12.10;99.90
38910;DHT22;24676;51.360;12.354;2023-11-19T14:52:44;12.10;99.90
38910;DHT22;24676;51.360;12.354;2023-11-19T14:55:28;12.00;99.90
38910;DHT22;24676;51.360;12.354;2023-11-19T14:58:13;12.00;99.90
38910;DHT22;24676;51.360;12.354;2023-11-19T15:00:58;12.00;99.90
38910;DHT22;24676;51.360;12.354;2023-11-19T15:03:42;12.00;99.90
38910;DHT22;24676;51.360;12.354;2023-11-19T15:06:26;12.00;99.90
38910;DHT22;24676;51.360;12.354;2023-11-19T15:09:11;12.00;99.90
38910;DHT22;24676;51.360;12.354;2023-11-19T15:12:00;12.00;99.90
38910;DHT22;24676;51.360;12.354;2023-11-19T15:14:46;12.00;99.90
38910;DHT22;24676;51.360;12.354;2023-11-19T15:17:30;12.00;99.90
38910;DHT22;24676;51.360;12.354;2023-11-19T15:20:14;12.00;99.90
38910;DHT22;24676;51.360;12.354;2023-11-19T15:23:02;12.00;99.90
38910;DHT22;24676;51.360;12.354;2023-11-19T15:25:46;12.00;99.90
38910;DHT22;24676;51.360;12.354;2023-11-19T15:28:30;11.90;99.90
38910;DHT22;24676;51.360;12.354;2023-11-19T15:31:14;11.90;99.90
38910;DHT22;24676;51.360;12.354;2023-11-19T15:34:00;11.80;99.90
38910;DHT22;24676;51.360;12.354;2023-11-19T15:36:44;11.70;99.90
38910;DHT22;24676;51.360;12.354;2023-11-19T15:39:29;11.60;99.90
38910;DHT22;24676;51.360;12.354;2023-11-19T15:42:13;11.60;99.90
38910;DHT22;24676;51.360;12.354;2023-11-19T15:44:58;11.60;99.90
38910;DHT22;24676;51.360;12.354;2023-11-19T15:47:42;11.60;99.90
38910;DHT22;24676;51.360;12.354;2023-11-19T15:50:27;11.60;99.90
38910;DHT22;24676;51.360;12.354;2023-11-19T15:53:13;11.60;99.90
38910;DHT22;24676;51.360;12.354;2023-11-19T15:55:58;11.60;99.90
38910;DHT22;24676;51.360;12.354;2023-11-19T15:58:42;11.60;99.90
38910;DHT22;24676;51.360;12.354;2023-11-19T16:01:27;11.60;99.90
38910;DHT22;24676;51.360;12.354;2023-11-19T16:04:12;11.60;99.90
38910;DHT22;24676;51.360;12.354;2023-11-19T16:06:57;11.60;99.90
38910;DHT22;24676;51.360;12.354;2023-11-19T16:09:43;11.60;99.90
38910;DHT22;24676;51.360;12.354;2023-11-19T16:12:27;11.60;99.90
38910;DHT22;24676;51.360;12.354;2023-11-19T16:15:12;11.60;99.90
38910;DHT22;24676;51.360;12.354;2023-11-19T16:17:58;11.50;99.90
38910;DHT22;24676;51.360;12.354;2023-11-19T16:20:43;11.40;99.90
38910;DHT22;24676;51.360;12.354;2023-11-19T16:23:28;11.40;99.90
38910;DHT22;24676;51.360;12.354;2023-11-19T16:26:13;11.30;99.90
38910;DHT22;24676;51.360;12.354;2023-11-19T16:28:58;11.20;99.90
38910;DHT22;24676;51.360;12.354;2023-11-19T16:31:43;11.10;99.90
38910;DHT22;24676;51.360;12.354;2023-11-19T16:34:27;11.10;99.90
38910;DHT22;24676;51.360;12.354;2023-11-19T16:37:12;11.00;99.90
38910;DHT22;24676;51.360;12.354;2023-11-19T16:39:56;11.00;99.90
38910;DHT22;24676;51.360;12.354;2023-11-19T16:42:40;10.90;99.90
38910;DHT22;24676;51.360;12.354;2023-11-19T16:45:25;10.90;99.90
38910;DHT22;24676;51.360;12.354;2023-11-19T16:48:09;10.90;99.90
38910;DHT22;24676;51.360;12.354;2023-11-19T16:50:53;10.90;99.90
38910;DHT22;24676;51.360;12.354;2023-11-19T16:53:37;10.90;99.90
38910;DHT22;24676;51.360;12.354;2023-11-19T16:56:21;10.90;99.90
38910;DHT22;24676;51.360;12.354;2023-11-19T16:59:05;10.90;99.90
38910;DHT22;24676;51.360;12.354;2023-11-19T17:01:50;10.90;99.90
38910;DHT22;24676;51.360;12.354;2023-11-19T17:04:34;10.90;99.90
38910;DHT22;24676;51.360;12.354;2023-11-19T17:07:18;10.90;99.90
38910;DHT22;24676;51.360;12.354;2023-11-19T17:10:02;11.00;99.90
38910;DHT22;24676;51.360;12.354;2023-11-19T17:12:46;11.00;99.90
38910;DHT22;24676;51.360;12.354;2023-11-19T17:15:31;11.00;99.90
38910;DHT22;24676;51.360;12.354;2023-11-19T17:18:15;11.00;99.90
38910;DHT22;24676;51.360;12.354;2023-11-19T17:21:00;11.00;99.90
38910;DHT22;24676;51.360;12.354;2023-11-19T17:23:45;11.00;99.90
38910;DHT22;24676;51.360;12.354;2023-11-19T17:26:29;10.90;99.90
38910;DHT22;24676;51.360;12.354;2023-11-19T17:29:13;10.90;99.90